createdAt,value
2017-02-11T00:00:17.240Z,285.57
2017-02-11T00:01:17.230Z,285.38
2017-02-11T00:02:17.234Z,285.95
2017-02-11T00:03:17.234Z,287.99
2017-02-11T00:04:17.246Z,289.11
2017-02-11T00:05:17.246Z,289.3
2017-02-11T00:06:17.241Z,289.9
2017-02-11T00:07:17.273Z,289.43
2017-02-11T00:08:17.243Z,290.15
2017-02-11T00:09:17.239Z,289.94
2017-02-11T00:10:17.247Z,291.33
2017-02-11T00:11:17.249Z,292.42
2017-02-11T00:12:17.249Z,293.82
2017-02-11T00:13:17.245Z,294.24
2017-02-11T00:14:17.263Z,296.3
2017-02-11T00:15:17.245Z,296.48
2017-02-11T00:16:17.244Z,297.89
2017-02-11T00:17:17.249Z,299.03
2017-02-11T00:18:17.248Z,299.75
2017-02-11T00:19:17.250Z,301.8
2017-02-11T00:20:17.249Z,303.88
2017-02-11T00:21:17.254Z,304.82
2017-02-11T00:22:17.246Z,306.82
2017-02-11T00:23:17.246Z,306.16
2017-02-11T00:24:17.257Z,305.46
2017-02-11T00:25:17.246Z,305.02
2017-02-11T00:26:17.261Z,306.2
2017-02-11T00:27:17.257Z,306.18
2017-02-11T00:28:17.251Z,306.46
2017-02-11T00:29:17.262Z,306.44
2017-02-11T00:30:17.253Z,304.76
2017-02-11T00:31:17.257Z,305.52
2017-02-11T00:32:19.470Z,305.28
2017-02-11T00:33:19.415Z,304.85
2017-02-11T00:34:17.250Z,303.94
2017-02-11T00:35:19.148Z,303.65
2017-02-11T00:36:19.085Z,304.82
2017-02-11T00:37:19.301Z,305.06
2017-02-11T00:38:18.075Z,306.39
2017-02-11T00:39:17.258Z,307.27
2017-02-11T00:40:17.259Z,308.2
2017-02-11T00:41:17.262Z,308.93
2017-02-11T00:42:17.272Z,310.51
2017-02-11T00:43:17.275Z,311.92
2017-02-11T00:44:17.260Z,312.79
2017-02-11T00:45:17.263Z,314.63
2017-02-11T00:46:17.264Z,314.42
2017-02-11T00:47:17.280Z,314.19
2017-02-11T00:48:17.270Z,313.55
2017-02-11T00:49:17.272Z,313.5
2017-02-11T00:50:17.278Z,313.06
2017-02-11T00:51:17.270Z,314.24
2017-02-11T00:52:17.305Z,313.62
2017-02-11T00:53:17.263Z,313.63
2017-02-11T00:54:17.256Z,314.3
2017-02-11T00:55:17.276Z,314.03
2017-02-11T00:56:17.272Z,315
2017-02-11T00:57:17.272Z,315.66
2017-02-11T00:58:17.277Z,316.57
2017-02-11T00:59:17.277Z,317.22
2017-02-11T01:00:17.262Z,317.62
2017-02-11T01:01:17.275Z,318.77
2017-02-11T01:02:17.277Z,319.47
2017-02-11T01:03:17.286Z,319.91
2017-02-11T01:04:17.277Z,320.18
2017-02-11T01:05:17.271Z,319.39
2017-02-11T01:06:17.273Z,319.29
2017-02-11T01:07:17.286Z,318.78
2017-02-11T01:08:17.272Z,318.09
2017-02-11T01:09:17.271Z,318.56
2017-02-11T01:10:17.285Z,319.48
2017-02-11T01:11:17.321Z,317.9
2017-02-11T01:12:17.288Z,316.27
2017-02-11T01:13:17.282Z,315.82
2017-02-11T01:14:17.277Z,315.8
2017-02-11T01:15:17.283Z,318.08
2017-02-11T01:16:17.275Z,318.49
2017-02-11T01:17:17.280Z,319.63
2017-02-11T01:18:17.287Z,319.36
2017-02-11T01:19:17.280Z,318.7
2017-02-11T01:20:17.290Z,318.89
2017-02-11T01:21:17.323Z,318.58
2017-02-11T01:22:17.293Z,319.26
2017-02-11T01:23:17.292Z,320.13
2017-02-11T01:24:17.296Z,320.1
2017-02-11T01:25:17.285Z,321.5
2017-02-11T01:26:17.295Z,321.44
2017-02-11T01:27:17.290Z,321.93
2017-02-11T01:28:17.291Z,321.68
2017-02-11T01:29:17.292Z,322.32
2017-02-11T01:30:17.293Z,322.08
2017-02-11T01:31:17.283Z,323.93
2017-02-11T01:32:17.296Z,323.89
2017-02-11T01:33:17.287Z,323.69
2017-02-11T01:34:17.294Z,325.57
2017-02-11T01:35:17.303Z,326.6
2017-02-11T01:36:17.289Z,326.63
2017-02-11T01:37:17.294Z,328.47
2017-02-11T01:38:17.290Z,329.57
2017-02-11T01:39:17.293Z,329.54
2017-02-11T01:40:17.306Z,330.92
2017-02-11T01:41:17.299Z,331.6
2017-02-11T01:42:17.306Z,331.62
2017-02-11T01:43:17.313Z,332.09
2017-02-11T01:44:17.289Z,331.45
2017-02-11T01:45:17.297Z,331.82
2017-02-11T01:46:17.302Z,331.5
2017-02-11T01:47:17.295Z,331.49
2017-02-11T01:48:17.296Z,331.69
2017-02-11T01:49:17.299Z,329.45
2017-02-11T01:50:17.295Z,330.35
2017-02-11T01:51:17.300Z,330.59
2017-02-11T01:52:17.303Z,330.34
2017-02-11T01:53:17.299Z,330.32
2017-02-11T01:54:17.302Z,330.8
2017-02-11T01:55:17.313Z,331.44
2017-02-11T01:56:17.330Z,330.11
2017-02-11T01:57:17.297Z,329.38
2017-02-11T01:58:17.305Z,330.32
2017-02-11T01:59:17.303Z,330.94
2017-02-11T02:00:17.303Z,331.88
2017-02-11T02:01:17.305Z,332.75
2017-02-11T02:02:17.312Z,334.31
2017-02-11T02:03:17.316Z,335.88
2017-02-11T02:04:17.306Z,336.95
2017-02-11T02:05:17.317Z,337.1
2017-02-11T02:06:17.307Z,336.86
2017-02-11T02:07:17.314Z,336.13
2017-02-11T02:08:17.317Z,335.46
2017-02-11T02:09:17.311Z,335.44
2017-02-11T02:10:17.316Z,336.15
2017-02-11T02:11:17.314Z,336.15
2017-02-11T02:12:17.319Z,337.04
2017-02-11T02:13:17.320Z,337.22
2017-02-11T02:14:17.328Z,338.8
2017-02-11T02:15:17.321Z,338.16
2017-02-11T02:16:17.325Z,337.89
2017-02-11T02:17:17.339Z,337.48
2017-02-11T02:18:17.325Z,336.58
2017-02-11T02:19:17.317Z,336.43
2017-02-11T02:20:17.333Z,336.44
2017-02-11T02:21:17.329Z,337.43
2017-02-11T02:22:17.325Z,338.77
2017-02-11T02:23:17.324Z,339.25
2017-02-11T02:24:17.327Z,339.51
2017-02-11T02:25:17.326Z,338.8
2017-02-11T02:26:17.340Z,338.6
2017-02-11T02:27:17.335Z,338.63
2017-02-11T02:28:17.321Z,337.96
2017-02-11T02:29:17.337Z,337.22
2017-02-11T02:30:17.319Z,338.12
2017-02-11T02:31:17.327Z,338.14
2017-02-11T02:32:17.324Z,337.88
2017-02-11T02:33:17.326Z,337.87
2017-02-11T02:34:17.325Z,338.32
2017-02-11T02:35:17.331Z,338.05
2017-02-11T02:36:17.326Z,338.69
2017-02-11T02:37:17.332Z,338.92
2017-02-11T02:38:17.345Z,339.11
2017-02-11T02:39:17.341Z,338.41
2017-02-11T02:40:17.334Z,336.82
2017-02-11T02:41:17.335Z,335.98
2017-02-11T02:42:17.338Z,334.12
2017-02-11T02:43:17.337Z,333.96
2017-02-11T02:44:17.338Z,331.44
2017-02-11T02:45:17.339Z,330.06
2017-02-11T02:46:17.340Z,328.44
2017-02-11T02:47:17.344Z,326.62
2017-02-11T02:48:17.338Z,326.43
2017-02-11T02:49:17.336Z,327.03
2017-02-11T02:50:17.341Z,328.22
2017-02-11T02:51:17.341Z,328.38
2017-02-11T02:52:17.343Z,328.81
2017-02-11T02:53:17.345Z,328.85
2017-02-11T02:54:17.353Z,328.49
2017-02-11T02:55:17.345Z,328.32
2017-02-11T02:56:17.340Z,328.56
2017-02-11T02:57:17.350Z,328.52
2017-02-11T02:58:17.350Z,329.01
2017-02-11T02:59:17.338Z,330.16
2017-02-11T03:00:17.352Z,330.34
2017-02-11T03:01:17.355Z,330.95
2017-02-11T03:02:17.350Z,331.42
2017-02-11T03:03:17.345Z,331.64
2017-02-11T03:04:17.343Z,330.5
2017-02-11T03:05:17.346Z,330.98
2017-02-11T03:06:17.350Z,330.83
2017-02-11T03:07:17.350Z,330.86
2017-02-11T03:08:17.356Z,331.79
2017-02-11T03:09:17.352Z,332.63
2017-02-11T03:10:17.351Z,333.12
2017-02-11T03:11:17.362Z,333.78
2017-02-11T03:12:17.360Z,334.98
2017-02-11T03:13:17.356Z,334.75
2017-02-11T03:14:17.355Z,334.77
2017-02-11T03:15:17.373Z,335.67
2017-02-11T03:16:17.354Z,336.5
2017-02-11T03:17:17.366Z,336.97
2017-02-11T03:18:17.363Z,336.5
2017-02-11T03:19:17.365Z,337.94
2017-02-11T03:20:17.369Z,337.76
2017-02-11T03:21:17.368Z,338.45
2017-02-11T03:22:17.357Z,339.12
2017-02-11T03:23:17.363Z,340.46
2017-02-11T03:24:17.365Z,340.43
2017-02-11T03:25:17.363Z,339.29
2017-02-11T03:26:17.357Z,339.05
2017-02-11T03:27:17.365Z,339.01
2017-02-11T03:28:17.361Z,338.28
2017-02-11T03:29:17.360Z,339.62
2017-02-11T03:30:17.372Z,337.53
2017-02-11T03:31:17.376Z,336.21
2017-02-11T03:32:17.375Z,333.7
2017-02-11T03:33:17.376Z,332.11
2017-02-11T03:34:17.379Z,330.09
2017-02-11T03:35:17.380Z,327.18
2017-02-11T03:36:17.379Z,326.35
2017-02-11T03:37:17.375Z,325.18
2017-02-11T03:38:17.375Z,323.93
2017-02-11T03:39:17.362Z,323.18
2017-02-11T03:40:17.373Z,322.74
2017-02-11T03:41:17.371Z,323.6
2017-02-11T03:42:17.368Z,323.81
2017-02-11T03:43:17.386Z,324.92
2017-02-11T03:44:17.379Z,324.72
2017-02-11T03:45:17.370Z,325.64
2017-02-11T03:46:17.391Z,324.07
2017-02-11T03:47:17.377Z,323.07
2017-02-11T03:48:17.383Z,323.31
2017-02-11T03:49:17.382Z,323.04
2017-02-11T03:50:17.377Z,323.64
2017-02-11T03:51:17.382Z,321.85
2017-02-11T03:52:17.379Z,320.53
2017-02-11T03:53:17.383Z,318.47
2017-02-11T03:54:17.377Z,317.14
2017-02-11T03:55:17.383Z,315.7
2017-02-11T03:56:17.379Z,314.57
2017-02-11T03:57:17.386Z,312.5
2017-02-11T03:58:17.394Z,311.1
2017-02-11T03:59:17.382Z,309.73
2017-02-11T04:00:17.382Z,309.45
2017-02-11T04:01:17.396Z,307.85
2017-02-11T04:02:17.388Z,306.51
2017-02-11T04:03:17.395Z,305.14
2017-02-11T04:04:17.387Z,302.61
2017-02-11T04:05:17.387Z,301.53
2017-02-11T04:06:17.391Z,298.78
2017-02-11T04:07:17.392Z,296.23
2017-02-11T04:08:17.416Z,295.41
2017-02-11T04:09:17.394Z,293.82
2017-02-11T04:10:17.389Z,292.52
2017-02-11T04:11:17.385Z,291.58
2017-02-11T04:12:17.390Z,289.74
2017-02-11T04:13:17.390Z,289.57
2017-02-11T04:14:17.400Z,288.19
2017-02-11T04:15:17.389Z,288.38
2017-02-11T04:16:17.395Z,287.2
2017-02-11T04:17:17.395Z,285.76
2017-02-11T04:18:17.411Z,285.09
2017-02-11T04:19:17.407Z,283.74
2017-02-11T04:20:17.398Z,282.64
2017-02-11T04:21:17.401Z,282.12
2017-02-11T04:22:17.403Z,281.91
2017-02-11T04:23:17.409Z,280.77
2017-02-11T04:24:17.405Z,280.3
2017-02-11T04:25:17.402Z,279.97
2017-02-11T04:26:17.403Z,279.72
2017-02-11T04:27:17.402Z,278.62
2017-02-11T04:28:17.405Z,279.41
2017-02-11T04:29:17.409Z,280.23
2017-02-11T04:30:17.413Z,280.96
2017-02-11T04:31:17.407Z,280.75
2017-02-11T04:32:17.402Z,281.92
2017-02-11T04:33:17.407Z,282.59
2017-02-11T04:34:17.415Z,283.48
2017-02-11T04:35:17.411Z,285.05
2017-02-11T04:36:17.416Z,287.18
2017-02-11T04:37:17.413Z,287.62
2017-02-11T04:38:17.404Z,289.3
2017-02-11T04:39:17.412Z,288.98
2017-02-11T04:40:17.411Z,288.74
2017-02-11T04:41:17.408Z,289.41
2017-02-11T04:42:17.411Z,290.16
2017-02-11T04:43:17.421Z,289.62
2017-02-11T04:44:17.409Z,290.29
2017-02-11T04:45:17.418Z,290.98
2017-02-11T04:46:17.412Z,290.52
2017-02-11T04:47:17.412Z,290.76
2017-02-11T04:48:17.411Z,290.55
2017-02-11T04:49:17.417Z,289.43
2017-02-11T04:50:17.433Z,288.75
2017-02-11T04:51:17.425Z,290.07
2017-02-11T04:52:17.425Z,290.03
2017-02-11T04:53:17.429Z,290.5
2017-02-11T04:54:17.413Z,291.19
2017-02-11T04:55:17.419Z,289.71
2017-02-11T04:56:17.431Z,288.59
2017-02-11T04:57:17.422Z,288.06
2017-02-11T04:58:17.429Z,286.6
2017-02-11T04:59:17.436Z,284.38
2017-02-11T05:00:17.426Z,282.79
2017-02-11T05:01:17.425Z,281.27
2017-02-11T05:02:17.439Z,280.11
2017-02-11T05:03:17.434Z,279.38
2017-02-11T05:04:17.429Z,278.17
2017-02-11T05:05:17.422Z,277.42
2017-02-11T05:06:17.432Z,276.27
2017-02-11T05:07:17.434Z,275.59
2017-02-11T05:08:17.434Z,275.75
2017-02-11T05:09:17.429Z,270.57
2017-02-11T05:10:17.439Z,272.76
2017-02-11T05:11:17.431Z,273.21
2017-02-11T05:12:17.439Z,271.32
2017-02-11T05:13:17.442Z,271.52
2017-02-11T05:14:17.444Z,269.9
2017-02-11T05:15:17.432Z,268.77
2017-02-11T05:16:17.432Z,268.84
2017-02-11T05:17:17.440Z,267.69
2017-02-11T05:18:17.437Z,268.89
2017-02-11T05:20:17.442Z,271.02
2017-02-11T05:21:17.432Z,272.18
2017-02-11T05:22:17.445Z,270.52
2017-02-11T05:23:17.450Z,271.42
2017-02-11T05:24:17.438Z,272.57
2017-02-11T05:25:17.448Z,272.81
2017-02-11T05:26:17.441Z,272.78
2017-02-11T05:27:17.440Z,273.05
2017-02-11T05:28:17.442Z,272.43
2017-02-11T05:29:17.449Z,273.1
2017-02-11T05:30:17.441Z,271.95
2017-02-11T05:31:17.442Z,272.61
2017-02-11T05:32:17.439Z,270.89
2017-02-11T05:33:17.439Z,271.22
2017-02-11T05:34:17.449Z,270.22
2017-02-11T05:35:17.455Z,270.88
2017-02-11T05:36:17.456Z,271.62
2017-02-11T05:37:17.450Z,270.15
2017-02-11T05:38:17.465Z,268.94
2017-02-11T05:39:17.449Z,267.1
2017-02-11T05:40:17.452Z,265.19
2017-02-11T05:41:17.456Z,263.9
2017-02-11T05:42:17.448Z,262.93
2017-02-11T05:43:17.451Z,261.31
2017-02-11T05:44:17.452Z,261.06
2017-02-11T05:45:17.454Z,261.58
2017-02-11T05:46:17.456Z,261.76
2017-02-11T05:47:17.452Z,261.04
2017-02-11T05:48:17.461Z,261.08
2017-02-11T05:49:17.450Z,259.7
2017-02-11T05:50:17.458Z,258.95
2017-02-11T05:51:17.454Z,257.24
2017-02-11T05:52:17.453Z,257.06
2017-02-11T05:53:17.484Z,257.76
2017-02-11T05:54:17.463Z,258.18
2017-02-11T05:55:17.457Z,258.19
2017-02-11T05:56:17.461Z,258.84
2017-02-11T05:57:17.459Z,258.12
2017-02-11T05:58:17.460Z,259.51
2017-02-11T05:59:17.475Z,260.25
2017-02-11T06:00:17.466Z,260.41
2017-02-11T06:01:17.469Z,260.83
2017-02-11T06:02:17.460Z,261.8
2017-02-11T06:03:17.472Z,260.85
2017-02-11T06:04:17.471Z,260.62
2017-02-11T06:05:17.475Z,259.62
2017-02-11T06:06:17.478Z,259.9
2017-02-11T06:07:17.467Z,259.62
2017-02-11T06:08:17.476Z,257.71
2017-02-11T06:09:17.469Z,257.06
2017-02-11T06:10:17.469Z,255.7
2017-02-11T06:11:17.462Z,255.73
2017-02-11T06:12:17.472Z,255.67
2017-02-11T06:13:17.476Z,254.75
2017-02-11T06:14:17.462Z,254.29
2017-02-11T06:15:17.466Z,253.66
2017-02-11T06:16:17.477Z,252.58
2017-02-11T06:17:17.468Z,251.83
2017-02-11T06:18:17.476Z,250.87
2017-02-11T06:19:17.481Z,249.95
2017-02-11T06:20:17.476Z,248.32
2017-02-11T06:21:17.468Z,247.76
2017-02-11T06:22:17.473Z,246.77
2017-02-11T06:23:17.483Z,244.67
2017-02-11T06:24:17.480Z,243.74
2017-02-11T06:25:17.481Z,241.33
2017-02-11T06:26:17.482Z,240.72
2017-02-11T06:27:17.478Z,237.72
2017-02-11T06:28:17.484Z,235.16
2017-02-11T06:29:17.489Z,235.26
2017-02-11T06:30:17.480Z,232.6
2017-02-11T06:31:17.501Z,230.99
2017-02-11T06:32:17.479Z,229.43
2017-02-11T06:33:17.483Z,226.88
2017-02-11T06:34:17.493Z,224.08
2017-02-11T06:35:17.486Z,222.42
2017-02-11T06:36:17.485Z,220.98
2017-02-11T06:37:17.489Z,219.7
2017-02-11T06:38:17.488Z,220.91
2017-02-11T06:39:17.486Z,220.19
2017-02-11T06:40:17.488Z,219.78
2017-02-11T06:41:17.498Z,220.22
2017-02-11T06:42:17.498Z,219.97
2017-02-11T06:43:17.494Z,219.68
2017-02-11T06:44:17.489Z,220.32
2017-02-11T06:45:17.485Z,221.06
2017-02-11T06:46:17.492Z,221.28
2017-02-11T06:47:17.494Z,220.82
2017-02-11T06:48:17.489Z,221.04
2017-02-11T06:49:17.489Z,220.97
2017-02-11T06:50:17.494Z,222.61
2017-02-11T06:51:17.496Z,222.45
2017-02-11T06:52:17.487Z,223.7
2017-02-11T06:53:17.507Z,224.67
2017-02-11T06:54:17.501Z,225.14
2017-02-11T06:55:17.500Z,226.09
2017-02-11T06:56:17.513Z,227.8
2017-02-11T06:57:17.536Z,225.42
2017-02-11T06:58:17.496Z,230.14
2017-02-11T06:59:17.523Z,231.38
2017-02-11T07:00:17.527Z,232.79
2017-02-11T07:01:17.527Z,234.45
2017-02-11T07:02:17.520Z,234.91
2017-02-11T07:03:17.512Z,237.47
2017-02-11T07:04:17.520Z,239.63
2017-02-11T07:05:17.493Z,241.09
2017-02-11T07:06:17.501Z,243
2017-02-11T07:07:17.497Z,243.93
2017-02-11T07:08:17.499Z,244.86
2017-02-11T07:09:17.509Z,245.56
2017-02-11T07:10:17.506Z,246.96
2017-02-11T07:11:17.497Z,248.16
2017-02-11T07:12:17.503Z,249.71
2017-02-11T07:13:17.503Z,250.6
2017-02-11T07:14:17.501Z,252.7
2017-02-11T07:15:17.507Z,254.35
2017-02-11T07:16:17.508Z,255.09
2017-02-11T07:17:17.510Z,256.24
2017-02-11T07:18:17.511Z,258.43
2017-02-11T07:19:17.513Z,259.83
2017-02-11T07:20:17.516Z,260.75
2017-02-11T07:21:17.515Z,262.52
2017-02-11T07:22:17.517Z,264.43
2017-02-11T07:23:17.518Z,266.1
2017-02-11T07:24:17.521Z,268.01
2017-02-11T07:25:17.518Z,268.98
2017-02-11T07:26:17.517Z,270.96
2017-02-11T07:27:17.513Z,271.64
2017-02-11T07:28:17.503Z,274.31
2017-02-11T07:29:17.516Z,275.65
2017-02-11T07:30:17.510Z,278.17
2017-02-11T07:31:17.524Z,281.43
2017-02-11T07:32:17.524Z,284.82
2017-02-11T07:33:17.518Z,285.96
2017-02-11T07:34:17.514Z,288.52
2017-02-11T07:35:17.511Z,290.36
2017-02-11T07:36:17.517Z,293.11
2017-02-11T07:37:17.514Z,296.33
2017-02-11T07:38:17.528Z,301.11
2017-02-11T07:39:17.531Z,305
2017-02-11T07:40:17.523Z,307.76
2017-02-11T07:41:17.517Z,310.03
2017-02-11T07:42:17.522Z,312.68
2017-02-11T07:43:17.519Z,316.03
2017-02-11T07:44:17.528Z,320.16
2017-02-11T07:45:17.524Z,325.57
2017-02-11T07:46:17.522Z,329.83
2017-02-11T07:47:17.527Z,333.88
2017-02-11T07:48:17.528Z,337.18
2017-02-11T07:49:17.530Z,342.27
2017-02-11T07:50:17.527Z,344.5
2017-02-11T07:51:17.522Z,347.85
2017-02-11T07:52:17.535Z,353.33
2017-02-11T07:53:17.531Z,358.48
2017-02-11T07:54:17.532Z,362.15
2017-02-11T07:55:17.531Z,366.86
2017-02-11T07:56:17.526Z,369.96
2017-02-11T07:57:17.541Z,373.27
2017-02-11T07:58:17.538Z,377.27
2017-02-11T07:59:17.523Z,380.56
2017-02-11T08:00:17.534Z,384.48
2017-02-11T08:01:17.555Z,387.94
2017-02-11T08:02:17.532Z,391.87
2017-02-11T08:03:17.542Z,396.2
2017-02-11T08:04:17.549Z,399
2017-02-11T08:05:17.535Z,402.67
2017-02-11T08:06:17.545Z,404.47
2017-02-11T08:07:17.548Z,410.06
2017-02-11T08:08:17.539Z,416.15
2017-02-11T08:09:17.531Z,421.06
2017-02-11T08:10:17.551Z,426.08
2017-02-11T08:11:17.542Z,430.13
2017-02-11T08:12:17.543Z,434.59
2017-02-11T08:13:17.534Z,436.31
2017-02-11T08:14:17.535Z,439.06
2017-02-11T08:15:17.548Z,439.7
2017-02-11T08:16:17.546Z,442.52
2017-02-11T08:17:17.565Z,443.08
2017-02-11T08:18:17.541Z,442.46
2017-02-11T08:19:17.546Z,442.63
2017-02-11T08:20:17.549Z,442.62
2017-02-11T08:21:17.544Z,442.43
2017-02-11T08:22:17.550Z,441.06
2017-02-11T08:23:17.558Z,440.62
2017-02-11T08:24:17.546Z,440.47
2017-02-11T08:25:17.553Z,436.93
2017-02-11T08:26:17.554Z,436.16
2017-02-11T08:27:17.551Z,433.53
2017-02-11T08:28:17.549Z,430.69
2017-02-11T08:29:17.551Z,426.86
2017-02-11T08:30:17.559Z,425.44
2017-02-11T08:31:17.557Z,422.88
2017-02-11T08:32:17.548Z,419.87
2017-02-11T08:33:17.555Z,417.68
2017-02-11T08:34:17.555Z,415.32
2017-02-11T08:35:17.558Z,413.56
2017-02-11T08:36:17.555Z,410.57
2017-02-11T08:37:17.557Z,406.85
2017-02-11T08:38:17.555Z,402.1
2017-02-11T08:39:17.561Z,398.6
2017-02-11T08:40:17.561Z,397.15
2017-02-11T08:41:17.559Z,394.77
2017-02-11T08:42:17.561Z,391.36
2017-02-11T08:43:17.552Z,386.54
2017-02-11T08:44:17.559Z,379.78
2017-02-11T08:45:17.559Z,374.22
2017-02-11T08:46:17.559Z,368.35
2017-02-11T08:47:17.567Z,361.95
2017-02-11T08:48:17.564Z,357.35
2017-02-11T08:49:17.566Z,352.38
2017-02-11T08:50:17.563Z,348.84
2017-02-11T08:51:17.573Z,344.97
2017-02-11T08:52:17.569Z,343.72
2017-02-11T08:53:17.562Z,341.73
2017-02-11T08:54:17.569Z,341.27
2017-02-11T08:55:17.574Z,338.32
2017-02-11T08:56:17.579Z,337.45
2017-02-11T08:57:17.565Z,336.97
2017-02-11T08:58:17.588Z,336.29
2017-02-11T08:59:17.576Z,336.06
2017-02-11T09:00:17.576Z,335.33
2017-02-11T09:01:17.583Z,335.07
2017-02-11T09:02:17.595Z,334.35
2017-02-11T09:03:17.580Z,334.25
2017-02-11T09:04:17.575Z,334.93
2017-02-11T09:05:17.569Z,335.67
2017-02-11T09:06:17.584Z,334.97
2017-02-11T09:07:17.579Z,336.34
2017-02-11T09:08:17.578Z,337.82
2017-02-11T09:09:17.575Z,339.68
2017-02-11T09:10:17.582Z,342.1
2017-02-11T09:11:17.579Z,344.13
2017-02-11T09:12:17.586Z,345.02
2017-02-11T09:13:17.584Z,345.66
2017-02-11T09:14:17.584Z,347.38
2017-02-11T09:15:17.591Z,350.06
2017-02-11T09:16:17.590Z,352.52
2017-02-11T09:17:17.577Z,354.52
2017-02-11T09:18:17.581Z,355.63
2017-02-11T09:19:17.587Z,356.74
2017-02-11T09:20:17.590Z,358.06
2017-02-11T09:21:17.591Z,356.93
2017-02-11T09:22:17.589Z,362.81
2017-02-11T09:23:17.589Z,364.67
2017-02-11T09:24:17.588Z,367.11
2017-02-11T09:25:17.597Z,370.2
2017-02-11T09:26:17.595Z,371.47
2017-02-11T09:27:17.602Z,371.96
2017-02-11T09:28:17.587Z,372.33
2017-02-11T09:29:17.589Z,373.93
2017-02-11T09:30:17.590Z,375.4
2017-02-11T09:31:17.592Z,376.96
2017-02-11T09:32:17.601Z,377.8
2017-02-11T09:33:17.595Z,379.17
2017-02-11T09:34:17.590Z,379.79
2017-02-11T09:35:17.594Z,381.37
2017-02-11T09:36:17.599Z,384.56
2017-02-11T09:37:17.605Z,388.76
2017-02-11T09:38:17.597Z,392.2
2017-02-11T09:39:17.599Z,397.82
2017-02-11T09:40:17.589Z,403.01
2017-02-11T09:41:17.597Z,407.82
2017-02-11T09:42:17.597Z,410.5
2017-02-11T09:43:17.605Z,412.07
2017-02-11T09:44:17.614Z,413.28
2017-02-11T09:45:17.603Z,417.2
2017-02-11T09:46:17.598Z,417.34
2017-02-11T09:47:17.596Z,417.98
2017-02-11T09:48:17.609Z,418.61
2017-02-11T09:49:17.605Z,418.78
2017-02-11T09:50:17.599Z,418.41
2017-02-11T09:51:17.605Z,419.47
2017-02-11T09:52:17.606Z,420.3
2017-02-11T09:53:17.618Z,420.54
2017-02-11T09:54:17.610Z,421.62
2017-02-11T09:55:17.616Z,421.16
2017-02-11T09:56:17.620Z,421.11
2017-02-11T09:57:17.607Z,419.44
2017-02-11T09:58:17.620Z,417.42
2017-02-11T09:59:17.618Z,415.88
2017-02-11T10:00:17.613Z,412.45
2017-02-11T10:01:17.619Z,410.26
2017-02-11T10:02:17.621Z,408.96
2017-02-11T10:03:17.607Z,407.52
2017-02-11T10:04:17.611Z,404.67
2017-02-11T10:05:17.610Z,403.81
2017-02-11T10:06:17.617Z,403.57
2017-02-11T10:07:17.619Z,407.75
2017-02-11T10:08:17.628Z,408.59
2017-02-11T10:09:17.628Z,411.15
2017-02-11T10:10:17.630Z,417.43
2017-02-11T10:11:17.627Z,423.14
2017-02-11T10:12:17.645Z,428.94
2017-02-11T10:13:17.630Z,438.04
2017-02-11T10:14:17.629Z,449.8
2017-02-11T10:15:18.546Z,461.47
2017-02-11T10:16:17.633Z,470.22
2017-02-11T10:17:26.822Z,473.71
2017-02-11T10:18:17.636Z,475.12
2017-02-11T10:19:17.637Z,476.02
2017-02-11T10:20:17.708Z,473.25
2017-02-11T10:21:17.833Z,471.18
2017-02-11T10:22:17.662Z,467.43
2017-02-11T10:23:17.632Z,466.41
2017-02-11T10:24:17.683Z,463.94
2017-02-11T10:25:17.692Z,463.78
2017-02-11T10:26:17.668Z,462.65
2017-02-11T10:27:17.734Z,461.7
2017-02-11T10:28:17.626Z,461.5
2017-02-11T10:29:17.640Z,460.02
2017-02-11T10:30:17.720Z,456.99
2017-02-11T10:31:17.657Z,454.21
2017-02-11T10:32:17.695Z,450.67
2017-02-11T10:33:17.704Z,447.55
2017-02-11T10:34:17.675Z,445.71
2017-02-11T10:35:17.730Z,445.32
2017-02-11T10:36:17.663Z,445.05
2017-02-11T10:37:17.801Z,444.98
2017-02-11T10:38:17.644Z,446.9
2017-02-11T10:39:17.794Z,449.35
2017-02-11T10:40:17.637Z,451.71
2017-02-11T10:41:17.647Z,452.51
2017-02-11T10:42:17.641Z,455.26
2017-02-11T10:43:17.639Z,456.27
2017-02-11T10:44:17.638Z,457.48
2017-02-11T10:45:17.637Z,458.34
2017-02-11T10:46:17.641Z,457.88
2017-02-11T10:47:17.647Z,457.83
2017-02-11T10:48:17.641Z,456.36
2017-02-11T10:49:17.653Z,454.7
2017-02-11T10:50:17.649Z,451.8
2017-02-11T10:51:17.643Z,447.5
2017-02-11T10:52:17.635Z,445.43
2017-02-11T10:53:17.646Z,443.25
2017-02-11T10:54:18.398Z,443.09
2017-02-11T10:55:17.647Z,443.06
2017-02-11T10:56:17.665Z,442.86
2017-02-11T10:57:17.643Z,441.79
2017-02-11T10:58:17.647Z,440.91
2017-02-11T10:59:17.656Z,436.59
2017-02-11T11:00:17.663Z,432.81
2017-02-11T11:01:17.650Z,430.49
2017-02-11T11:02:17.644Z,427.91
2017-02-11T11:03:17.649Z,425.98
2017-02-11T11:04:17.664Z,425.87
2017-02-11T11:05:17.648Z,424.52
2017-02-11T11:06:17.661Z,423
2017-02-11T11:07:17.649Z,422.8
2017-02-11T11:08:17.656Z,423.3
2017-02-11T11:09:17.667Z,423.05
2017-02-11T11:10:17.665Z,422.4
2017-02-11T11:11:17.655Z,423.68
2017-02-11T11:12:18.201Z,425.33
2017-02-11T11:13:17.659Z,428.35
2017-02-11T11:14:17.667Z,430.93
2017-02-11T11:15:17.671Z,432.87
2017-02-11T11:16:17.658Z,433.95
2017-02-11T11:17:17.664Z,436.07
2017-02-11T11:18:17.664Z,437.97
2017-02-11T11:19:17.662Z,440.31
2017-02-11T11:20:17.655Z,441.08
2017-02-11T11:21:17.663Z,444.07
2017-02-11T11:22:17.677Z,446.56
2017-02-11T11:23:17.657Z,449.92
2017-02-11T11:24:17.669Z,451.35
2017-02-11T11:25:19.941Z,453.87
2017-02-11T11:26:17.666Z,455.76
2017-02-11T11:27:17.692Z,457.76
2017-02-11T11:28:17.664Z,462.05
2017-02-11T11:29:17.666Z,463.25
2017-02-11T11:30:17.677Z,465.32
2017-02-11T11:31:17.678Z,465.06
2017-02-11T11:32:17.791Z,464.98
2017-02-11T11:33:17.673Z,466.05
2017-02-11T11:34:17.673Z,466.25
2017-02-11T11:35:17.675Z,467.69
2017-02-11T11:36:17.672Z,468.16
2017-02-11T11:37:17.674Z,469.6
2017-02-11T11:38:17.671Z,471.07
2017-02-11T11:39:17.684Z,472.22
2017-02-11T11:40:17.698Z,473.72
2017-02-11T11:41:17.679Z,474.13
2017-02-11T11:42:17.680Z,477.42
2017-02-11T11:43:17.678Z,481.34
2017-02-11T11:44:17.686Z,485.43
2017-02-11T11:45:17.669Z,488.87
2017-02-11T11:46:17.689Z,492.97
2017-02-11T11:47:17.679Z,496.28
2017-02-11T11:48:17.675Z,498.52
2017-02-11T11:49:17.690Z,501.83
2017-02-11T11:50:17.692Z,507.67
2017-02-11T11:51:17.685Z,514.31
2017-02-11T11:52:17.678Z,518.9
2017-02-11T11:53:17.692Z,522.91
2017-02-11T11:54:17.689Z,525.93
2017-02-11T11:55:17.686Z,528.29
2017-02-11T11:56:17.757Z,529.89
2017-02-11T11:57:17.688Z,532.61
2017-02-11T11:58:17.695Z,539.02
2017-02-11T11:59:17.695Z,544.32
2017-02-11T12:00:17.689Z,548.77
2017-02-11T12:01:17.699Z,554.02
2017-02-11T12:02:17.693Z,559.03
2017-02-11T12:03:17.691Z,566.24
2017-02-11T12:04:17.702Z,572.17
2017-02-11T12:05:17.699Z,577.11
2017-02-11T12:06:17.697Z,582.51
2017-02-11T12:07:17.730Z,588.37
2017-02-11T12:08:17.699Z,594.8
2017-02-11T12:09:17.691Z,599.96
2017-02-11T12:10:17.697Z,603.67
2017-02-11T12:11:17.703Z,606.3
2017-02-11T12:12:17.705Z,606.49
2017-02-11T12:13:17.704Z,605.6
2017-02-11T12:14:17.700Z,603.27
2017-02-11T12:15:17.699Z,599.73
2017-02-11T12:16:17.715Z,598.46
2017-02-11T12:17:17.709Z,597.99
2017-02-11T12:18:17.700Z,596.74
2017-02-11T12:19:17.699Z,596.17
2017-02-11T12:20:17.701Z,596.39
2017-02-11T12:21:17.701Z,595.1
2017-02-11T12:22:17.711Z,592.83
2017-02-11T12:23:17.704Z,590.95
2017-02-11T12:24:17.711Z,587.25
2017-02-11T12:25:17.714Z,586.31
2017-02-11T12:26:17.707Z,586.16
2017-02-11T12:27:17.721Z,586.17
2017-02-11T12:28:17.712Z,584.62
2017-02-11T12:29:17.716Z,584.3
2017-02-11T12:30:17.708Z,585.62
2017-02-11T12:31:17.716Z,586.96
2017-02-11T12:32:17.734Z,589.26